Buoy 43533

sailwx.info

Track history (hours):
 
Tides and Currents Weather Stations Pressure Air Temp Water Temp Dewpoint Dewpoint Depression Visibility Wind Speed Wind Dir Waves Ship Positions

Drifting buoy 43533

Last reported at 2014-Dec-20 09:00 UTC. Time now 2014-Dec-20 11:35 UTC.
Position N 19°17' W 107°29'.

Length 24 m.

Type: Fishing. MMSI: 412466549.

Water temperature 26.8 ° C

Date/timePositionNaut miles runAvg speedWind from/ knotsBaromVisibWave heightAir tempDewpointWater temp
2014-Dec-20 09:00N 19°17' W 107°29'0 0.1 26.8
2014-Dec-20 05:00N 19°17' W 107°28'1 1.2 26.9
2014-Dec-20 04:00N 19°16' W 107°29'1 1.2 26.9
2014-Dec-20 03:00N 19°15' W 107°30'0 0.2 26.9
2014-Dec-20 01:00N 19°15' W 107°30'1 0.6 26.9
2014-Dec-20 00:00N 19°14' W 107°30'1 0.9 26.9
2014-Dec-19 23:00N 19°13' W 107°31'1 1.1 26.9
2014-Dec-19 22:00N 19°12' W 107°32'0 0.0 26.9
2014-Dec-19 21:00N 19°12' W 107°32'0 0.0 26.9
2014-Dec-19 20:00N 19°12' W 107°32'2 0.6 26.9
2014-Dec-19 16:00N 19°11' W 107°33'1 1.5 26.8
2014-Dec-19 15:00N 19°10' W 107°34'0 0.2 26.8
2014-Dec-19 13:00N 19°10' W 107°34'0 0.4 26.8
2014-Dec-19 12:00N 19°09' W 107°35'1 0.9 26.8
2014-Dec-19 11:00N 19°09' W 107°36'1 0.5 26.9
2014-Dec-19 09:00N 19°08' W 107°37'2 1.5 26.9
2014-Dec-19 08:00N 19°08' W 107°38'2 1.5 26.9
2014-Dec-19 07:00N 19°08' W 107°37'2 0.8 26.9
2014-Dec-19 05:00N 19°08' W 107°38'1 0.7 26.9
2014-Dec-19 04:00N 19°08' W 107°39'1 0.7 26.9
2014-Dec-19 02:00N 19°08' W 107°40'2 1.2 26.9
2014-Dec-19 00:00N 19°07' W 107°43'1 0.5 26.9
2014-Dec-18 21:00N 19°08' W 107°44'0 0.0 27.0
2014-Dec-18 19:00N 19°08' W 107°44'0 0.0 27.0
2014-Dec-18 18:00N 19°08' W 107°44'0 0.3 26.9
2014-Dec-18 17:00N 19°08' W 107°44'1 0.6 26.9
2014-Dec-18 16:00N 19°08' W 107°44'1 0.1 26.9
2014-Dec-18 12:00N 19°08' W 107°43'1 0.7 26.9
2014-Dec-18 11:00N 19°08' W 107°42'0 0.2 26.9
2014-Dec-18 10:00N 19°08' W 107°42'0 0.3 26.9
2014-Dec-18 09:00N 19°08' W 107°42'2 1.6 26.9
2014-Dec-18 08:00N 19°08' W 107°40'0 0.0 26.9
2014-Dec-18 05:00N 19°08' W 107°40'1 0.7 27.0
2014-Dec-18 04:00N 19°07' W 107°40'0 0.0 27.0
2014-Dec-18 03:00N 19°07' W 107°40'1 0.4 27.0
2014-Dec-18 00:00N 19°07' W 107°39'0 0.2 27.0
2014-Dec-17 23:00N 19°07' W 107°39'1 0.4 27.0
2014-Dec-17 21:00N 19°06' W 107°39'0 0.5 27.0
2014-Dec-17 20:00N 19°07' W 107°39'0 0.0 27.0
2014-Dec-17 19:00N 19°07' W 107°39'2 0.9 27.0
2014-Dec-17 17:00N 19°05' W 107°37'1 0.6 27.0
2014-Dec-17 16:00N 19°05' W 107°37'1 0.4 27.0
2014-Dec-17 14:00N 19°04' W 107°37'0 0.2 27.0
2014-Dec-17 12:00N 19°04' W 107°36'0 0.5 27.1
2014-Dec-17 11:00N 19°03' W 107°36'1 0.7 27.1
2014-Dec-17 10:00N 19°03' W 107°36'0 0.0 27.1
2014-Dec-17 09:00N 19°03' W 107°36'1 1.2 27.1
2014-Dec-17 08:00N 19°02' W 107°36'0 0.1 27.1
2014-Dec-17 05:00N 19°02' W 107°36'1 1.2 27.1
2014-Dec-17 04:00N 19°01' W 107°37'0 0.2 27.2
2014-Dec-17 03:00N 19°00' W 107°37'1 0.9 27.1
2014-Dec-17 02:00N 19°00' W 107°38'1 0.6 27.1
2014-Dec-17 01:00N 18°60' W 107°38'2 1.8 27.1
2014-Dec-17 00:00N 18°59' W 107°39'0 0.1 27.1
2014-Dec-16 23:00N 18°59' W 107°39'2 0.8 27.2
2014-Dec-16 21:00N 18°57' W 107°39'2 1.6 27.2
2014-Dec-16 20:00N 18°56' W 107°40'2 0.7 27.2
2014-Dec-16 17:00N 18°54' W 107°40'11 0.6 27.1
2014-Dec-15 23:00N 18°47' W 107°49'1 1.3 27.2
2014-Dec-15 22:00N 18°46' W 107°50'2 2.1 27.2
2014-Dec-15 21:00N 18°44' W 107°52'0 0.0 27.2
2014-Dec-15 20:00N 18°44' W 107°52'1 1.3 27.2
2014-Dec-15 19:00N 18°44' W 107°53'0 0.0 27.2
2014-Dec-15 18:00N 18°44' W 107°53'1 0.6 27.2
2014-Dec-15 17:00N 18°43' W 107°53'1 1.1 27.2
2014-Dec-15 16:00N 18°43' W 107°54'2 2.5 27.2
2014-Dec-15 15:00N 18°41' W 107°56'2 0.8 27.1
2014-Dec-15 13:00N 18°40' W 107°57'0 0.0 27.2
2014-Dec-15 12:00N 18°40' W 107°57'1 1.3 27.2
2014-Dec-15 11:00N 18°40' W 107°58'1 1.3 27.2
2014-Dec-15 10:00N 18°38' W 107°59'3 1.5 27.2
2014-Dec-15 08:00N 18°36' W 108°01'1 0.2 27.2
2014-Dec-15 05:00N 18°35' W 108°01'1 0.8 27.2
2014-Dec-15 04:00N 18°35' W 108°01'1 0.6 27.2
2014-Dec-15 02:00N 18°34' W 108°02'1 0.8 27.3
2014-Dec-15 01:00N 18°34' W 108°02'1 0.6 27.3
2014-Dec-14 23:00N 18°33' W 108°03'2 2.1 27.3
2014-Dec-14 22:00N 18°31' W 108°04'0 0.0 27.3
2014-Dec-14 21:00N 18°31' W 108°04'0 0.0 27.3
2014-Dec-14 20:00N 18°31' W 108°04'1 1.3 27.3
2014-Dec-14 19:00N 18°31' W 108°05'1 0.6 27.3
2014-Dec-14 17:00N 18°31' W 108°07'1 0.8 27.3
2014-Dec-14 16:00N 18°30' W 108°07'0 0.0 27.2
2014-Dec-14 15:00N 18°30' W 108°07'1 1.1 27.2
2014-Dec-14 14:00N 18°30' W 108°08'1 0.6 27.2
2014-Dec-14 13:00N 18°30' W 108°08'2 1.8 27.3
2014-Dec-14 12:00N 18°29' W 108°10'2 0.8 27.2
2014-Dec-14 10:00N 18°28' W 108°11'2 2.1 27.3
2014-Dec-14 09:00N 18°26' W 108°12'2 2.1 27.3
2014-Dec-14 08:00N 18°28' W 108°11'2 0.7 27.3
2014-Dec-14 05:00N 18°26' W 108°12'1 0.8 27.4
2014-Dec-14 04:00N 18°26' W 108°13'0 0.0 27.4
2014-Dec-14 03:00N 18°26' W 108°13'4 1.3 27.4
2014-Dec-14 00:00N 18°23' W 108°16'11 0.4 27.5
2014-Dec-12 22:00N 18°16' W 108°24'1 0.5 27.4
2014-Dec-12 20:00N 18°15' W 108°25'5 0.5 27.4
2014-Dec-12 09:00N 18°10' W 108°27'1 0.1 27.3
2014-Dec-12 03:00N 18°11' W 108°27'0 0.0 27.3
2014-Dec-12 02:00N 18°11' W 108°27'0 0.3 27.3
2014-Dec-12 01:00N 18°11' W 108°28'2 1.1 27.4
2014-Dec-11 23:00N 18°11' W 108°30'1 1.3 27.5
2014-Dec-11 22:00N 18°10' W 108°31'1 0.3 27.4
2014-Dec-11 17:00N 18°09' W 108°31'0 0.3 27.3
2014-Dec-11 16:00N 18°09' W 108°31'0 0.5 27.3
2014-Dec-11 15:00N 18°09' W 108°31'0 0.1 27.3
2014-Dec-11 13:00N 18°09' W 108°31'0 0.3 27.3
2014-Dec-11 12:00N 18°09' W 108°31'1 0.6 27.3
2014-Dec-11 11:00N 18°08' W 108°32'0 0.0 27.4
2014-Dec-11 10:00N 18°08' W 108°32'1 0.6 27.4
2014-Dec-11 09:00N 18°08' W 108°32'0 0.0 27.4
2014-Dec-11 05:00N 18°08' W 108°32'0 0.4 27.5
2014-Dec-11 04:00N 18°08' W 108°31'0 0.0 27.5
2014-Dec-11 03:00N 18°08' W 108°31'1 0.3 27.6
2014-Dec-10 23:00N 18°08' W 108°32'0 0.1 27.6
2014-Dec-10 22:00N 18°08' W 108°32'1 1.3 27.6
2014-Dec-10 21:00N 18°09' W 108°34'0 0.0 27.6
2014-Dec-10 20:00N 18°09' W 108°34'0 0.0 27.5
2014-Dec-10 18:00N 18°09' W 108°34'1 0.8 27.4
2014-Dec-10 17:00N 18°08' W 108°33'0 0.3 27.3
2014-Dec-10 16:00N 18°09' W 108°33'1 0.9 27.5
2014-Dec-10 15:00N 18°09' W 108°32'0 0.0 27.4
2014-Dec-10 14:00N 18°09' W 108°32'0 0.1 27.4
2014-Dec-10 13:00N 18°09' W 108°32'0 0.0 27.4
2014-Dec-10 12:00N 18°09' W 108°32'0 0.2 27.4
2014-Dec-10 11:00N 18°09' W 108°32'0 0.1 27.4
2014-Dec-10 09:00N 18°09' W 108°32'   27.4
Track history (hours):
 
Tides and Currents Weather Stations Pressure Air Temp Water Temp Dewpoint Dewpoint Depression Visibility Wind Speed Wind Dir Waves Ship Positions

Drifting buoy 43533

Last reported at 2014-Dec-20 09:00 UTC. Time now 2014-Dec-20 11:35 UTC.
Position N 19°17' W 107°29'.

Length 24 m.

Type: Fishing. MMSI: 412466549.

Water temperature 26.8 ° C

Date/timePositionNaut miles runAvg speedWind from/ knotsBaromVisibWave heightAir tempDewpointWater temp
2014-Dec-20 09:00N 19°17' W 107°29'0 0.1 26.8
2014-Dec-20 05:00N 19°17' W 107°28'1 1.2 26.9
2014-Dec-20 04:00N 19°16' W 107°29'1 1.2 26.9
2014-Dec-20 03:00N 19°15' W 107°30'0 0.2 26.9
2014-Dec-20 01:00N 19°15' W 107°30'1 0.6 26.9
2014-Dec-20 00:00N 19°14' W 107°30'1 0.9 26.9
2014-Dec-19 23:00N 19°13' W 107°31'1 1.1 26.9
2014-Dec-19 22:00N 19°12' W 107°32'0 0.0 26.9
2014-Dec-19 21:00N 19°12' W 107°32'0 0.0 26.9
2014-Dec-19 20:00N 19°12' W 107°32'2 0.6 26.9
2014-Dec-19 16:00N 19°11' W 107°33'1 1.5 26.8
2014-Dec-19 15:00N 19°10' W 107°34'0 0.2 26.8
2014-Dec-19 13:00N 19°10' W 107°34'0 0.4 26.8
2014-Dec-19 12:00N 19°09' W 107°35'1 0.9 26.8
2014-Dec-19 11:00N 19°09' W 107°36'1 0.5 26.9
2014-Dec-19 09:00N 19°08' W 107°37'2 1.5 26.9
2014-Dec-19 08:00N 19°08' W 107°38'2 1.5 26.9
2014-Dec-19 07:00N 19°08' W 107°37'2 0.8 26.9
2014-Dec-19 05:00N 19°08' W 107°38'1 0.7 26.9
2014-Dec-19 04:00N 19°08' W 107°39'1 0.7 26.9
2014-Dec-19 02:00N 19°08' W 107°40'2 1.2 26.9
2014-Dec-19 00:00N 19°07' W 107°43'1 0.5 26.9
2014-Dec-18 21:00N 19°08' W 107°44'0 0.0 27.0
2014-Dec-18 19:00N 19°08' W 107°44'0 0.0 27.0
2014-Dec-18 18:00N 19°08' W 107°44'0 0.3 26.9
2014-Dec-18 17:00N 19°08' W 107°44'1 0.6 26.9
2014-Dec-18 16:00N 19°08' W 107°44'1 0.1 26.9
2014-Dec-18 12:00N 19°08' W 107°43'1 0.7 26.9
2014-Dec-18 11:00N 19°08' W 107°42'0 0.2 26.9
2014-Dec-18 10:00N 19°08' W 107°42'0 0.3 26.9
2014-Dec-18 09:00N 19°08' W 107°42'2 1.6 26.9
2014-Dec-18 08:00N 19°08' W 107°40'0 0.0 26.9
2014-Dec-18 05:00N 19°08' W 107°40'1 0.7 27.0
2014-Dec-18 04:00N 19°07' W 107°40'0 0.0 27.0
2014-Dec-18 03:00N 19°07' W 107°40'1 0.4 27.0
2014-Dec-18 00:00N 19°07' W 107°39'0 0.2 27.0
2014-Dec-17 23:00N 19°07' W 107°39'1 0.4 27.0
2014-Dec-17 21:00N 19°06' W 107°39'0 0.5 27.0
2014-Dec-17 20:00N 19°07' W 107°39'0 0.0 27.0
2014-Dec-17 19:00N 19°07' W 107°39'2 0.9 27.0
2014-Dec-17 17:00N 19°05' W 107°37'1 0.6 27.0
2014-Dec-17 16:00N 19°05' W 107°37'1 0.4 27.0
2014-Dec-17 14:00N 19°04' W 107°37'0 0.2 27.0
2014-Dec-17 12:00N 19°04' W 107°36'0 0.5 27.1
2014-Dec-17 11:00N 19°03' W 107°36'1 0.7 27.1
2014-Dec-17 10:00N 19°03' W 107°36'0 0.0 27.1
2014-Dec-17 09:00N 19°03' W 107°36'1 1.2 27.1
2014-Dec-17 08:00N 19°02' W 107°36'0 0.1 27.1
2014-Dec-17 05:00N 19°02' W 107°36'1 1.2 27.1
2014-Dec-17 04:00N 19°01' W 107°37'0 0.2 27.2
2014-Dec-17 03:00N 19°00' W 107°37'1 0.9 27.1
2014-Dec-17 02:00N 19°00' W 107°38'1 0.6 27.1
2014-Dec-17 01:00N 18°60' W 107°38'2 1.8 27.1
2014-Dec-17 00:00N 18°59' W 107°39'0 0.1 27.1
2014-Dec-16 23:00N 18°59' W 107°39'2 0.8 27.2
2014-Dec-16 21:00N 18°57' W 107°39'2 1.6 27.2
2014-Dec-16 20:00N 18°56' W 107°40'2 0.7 27.2
2014-Dec-16 17:00N 18°54' W 107°40'11 0.6 27.1
2014-Dec-15 23:00N 18°47' W 107°49'1 1.3 27.2
2014-Dec-15 22:00N 18°46' W 107°50'2 2.1 27.2
2014-Dec-15 21:00N 18°44' W 107°52'0 0.0 27.2
2014-Dec-15 20:00N 18°44' W 107°52'1 1.3 27.2
2014-Dec-15 19:00N 18°44' W 107°53'0 0.0 27.2
2014-Dec-15 18:00N 18°44' W 107°53'1 0.6 27.2
2014-Dec-15 17:00N 18°43' W 107°53'1 1.1 27.2
2014-Dec-15 16:00N 18°43' W 107°54'2 2.5 27.2
2014-Dec-15 15:00N 18°41' W 107°56'2 0.8 27.1
2014-Dec-15 13:00N 18°40' W 107°57'0 0.0 27.2
2014-Dec-15 12:00N 18°40' W 107°57'1 1.3 27.2
2014-Dec-15 11:00N 18°40' W 107°58'1 1.3 27.2
2014-Dec-15 10:00N 18°38' W 107°59'3 1.5 27.2
2014-Dec-15 08:00N 18°36' W 108°01'1 0.2 27.2
2014-Dec-15 05:00N 18°35' W 108°01'1 0.8 27.2
2014-Dec-15 04:00N 18°35' W 108°01'1 0.6 27.2
2014-Dec-15 02:00N 18°34' W 108°02'1 0.8 27.3
2014-Dec-15 01:00N 18°34' W 108°02'1 0.6 27.3
2014-Dec-14 23:00N 18°33' W 108°03'2 2.1 27.3
2014-Dec-14 22:00N 18°31' W 108°04'0 0.0 27.3
2014-Dec-14 21:00N 18°31' W 108°04'0 0.0 27.3
2014-Dec-14 20:00N 18°31' W 108°04'1 1.3 27.3
2014-Dec-14 19:00N 18°31' W 108°05'1 0.6 27.3
2014-Dec-14 17:00N 18°31' W 108°07'1 0.8 27.3
2014-Dec-14 16:00N 18°30' W 108°07'0 0.0 27.2
2014-Dec-14 15:00N 18°30' W 108°07'1 1.1 27.2
2014-Dec-14 14:00N 18°30' W 108°08'1 0.6 27.2
2014-Dec-14 13:00N 18°30' W 108°08'2 1.8 27.3
2014-Dec-14 12:00N 18°29' W 108°10'2 0.8 27.2
2014-Dec-14 10:00N 18°28' W 108°11'2 2.1 27.3
2014-Dec-14 09:00N 18°26' W 108°12'2 2.1 27.3
2014-Dec-14 08:00N 18°28' W 108°11'2 0.7 27.3
2014-Dec-14 05:00N 18°26' W 108°12'1 0.8 27.4
2014-Dec-14 04:00N 18°26' W 108°13'0 0.0 27.4
2014-Dec-14 03:00N 18°26' W 108°13'4 1.3 27.4
2014-Dec-14 00:00N 18°23' W 108°16'11 0.4 27.5
2014-Dec-12 22:00N 18°16' W 108°24'1 0.5 27.4
2014-Dec-12 20:00N 18°15' W 108°25'5 0.5 27.4
2014-Dec-12 09:00N 18°10' W 108°27'1 0.1 27.3
2014-Dec-12 03:00N 18°11' W 108°27'0 0.0 27.3
2014-Dec-12 02:00N 18°11' W 108°27'0 0.3 27.3
2014-Dec-12 01:00N 18°11' W 108°28'2 1.1 27.4
2014-Dec-11 23:00N 18°11' W 108°30'1 1.3 27.5
2014-Dec-11 22:00N 18°10' W 108°31'1 0.3 27.4
2014-Dec-11 17:00N 18°09' W 108°31'0 0.3 27.3
2014-Dec-11 16:00N 18°09' W 108°31'0 0.5 27.3
2014-Dec-11 15:00N 18°09' W 108°31'0 0.1 27.3
2014-Dec-11 13:00N 18°09' W 108°31'0 0.3 27.3
2014-Dec-11 12:00N 18°09' W 108°31'1 0.6 27.3
2014-Dec-11 11:00N 18°08' W 108°32'0 0.0 27.4
2014-Dec-11 10:00N 18°08' W 108°32'1 0.6 27.4
2014-Dec-11 09:00N 18°08' W 108°32'0 0.0 27.4
2014-Dec-11 05:00N 18°08' W 108°32'0 0.4 27.5
2014-Dec-11 04:00N 18°08' W 108°31'0 0.0 27.5
2014-Dec-11 03:00N 18°08' W 108°31'1 0.3 27.6
2014-Dec-10 23:00N 18°08' W 108°32'0 0.1 27.6
2014-Dec-10 22:00N 18°08' W 108°32'1 1.3 27.6
2014-Dec-10 21:00N 18°09' W 108°34'0 0.0 27.6
2014-Dec-10 20:00N 18°09' W 108°34'0 0.0 27.5
2014-Dec-10 18:00N 18°09' W 108°34'1 0.8 27.4
2014-Dec-10 17:00N 18°08' W 108°33'0 0.3 27.3
2014-Dec-10 16:00N 18°09' W 108°33'1 0.9 27.5
2014-Dec-10 15:00N 18°09' W 108°32'0 0.0 27.4
2014-Dec-10 14:00N 18°09' W 108°32'0 0.1 27.4
2014-Dec-10 13:00N 18°09' W 108°32'0 0.0 27.4
2014-Dec-10 12:00N 18°09' W 108°32'0 0.2 27.4
2014-Dec-10 11:00N 18°09' W 108°32'0 0.1 27.4
2014-Dec-10 09:00N 18°09' W 108°32'   27.4

Dump ship's entire track history